Clyde, Idaho
Current Conditions -  °F | °C
As of 8:55 PM on Thursday 27 Nov 2014 (Local Time) from KLLJ Reporting Station
Overcast Overcast  
Wind Chill: 39°   Ceiling: 11000
Heat Index: 44°   Visibility: 10mi
Dew Point: 33°   Wind: 9mph
Humidity: 65%   Direction: 200°SSW
Pressure: 30.02"   Gusts: NA
Location:  44.1355°N, 113.246°W
Report Text: KLLJ 280355Z AUTO 20008KT 10SM OVC110 07/01 A3002 RMK AO2 SLP163 T00670006
Loading
Personal Weather Stations






























Interactive Weather Map New forecast layout! Learn more

10-Day Weather Forecast

Advertisements
Track Severe Weather on mobile